createdAt,value
2017-09-10T00:02:06.067Z,99950.55
2017-09-10T00:04:35.919Z,99958.85
2017-09-10T00:07:04.294Z,99953.94
2017-09-10T00:09:34.015Z,99959.40
2017-09-10T00:12:03.210Z,99958.67
2017-09-10T00:14:31.587Z,99959.31
2017-09-10T00:17:01.405Z,99960.99
2017-09-10T00:19:30.096Z,99971.06
2017-09-10T00:21:58.440Z,99976.52
2017-09-10T00:24:27.079Z,99983.23
2017-09-10T00:26:56.152Z,99984.69
2017-09-10T00:29:24.524Z,99985.09
2017-09-10T00:31:52.863Z,99987.19
2017-09-10T00:34:23.046Z,99983.73
2017-09-10T00:36:51.385Z,99990.34
2017-09-10T00:39:20.574Z,99985.73
2017-09-10T00:41:49.690Z,99984.58
2017-09-10T00:44:18.024Z,99986.27
2017-09-10T00:46:46.393Z,99983.75
2017-09-10T00:49:15.358Z,99985.52
2017-09-10T00:51:43.707Z,99979.23
2017-09-10T00:54:12.106Z,99985.84
2017-09-10T00:56:41.743Z,99984.17
2017-09-10T00:59:10.065Z,99995.06
2017-09-10T01:01:38.418Z,99997.77
2017-09-10T01:04:07.027Z,100000.63
2017-09-10T01:06:35.405Z,100009.53
2017-09-10T01:09:03.761Z,100015.81
2017-09-10T01:11:32.905Z,100010.03
2017-09-10T01:14:02.055Z,100015.44
2017-09-10T01:16:31.551Z,100019.41
2017-09-10T01:19:00.246Z,100018.20
2017-09-10T01:21:29.497Z,100022.11
2017-09-10T01:23:57.883Z,100020.11
2017-09-10T01:26:26.499Z,100020.25
2017-09-10T01:28:54.873Z,100021.37
2017-09-10T01:31:23.222Z,100019.28
2017-09-10T01:33:52.318Z,100021.59
2017-09-10T01:36:21.388Z,100025.17
2017-09-10T01:38:49.738Z,100024.80
2017-09-10T01:41:18.385Z,100028.37
2017-09-10T01:43:46.724Z,100032.72
2017-09-10T01:46:15.592Z,100030.05
2017-09-10T01:48:44.256Z,100032.09
2017-09-10T01:51:12.595Z,100027.67
2017-09-10T01:53:41.690Z,100033.21
2017-09-10T01:56:10.602Z,100036.69
2017-09-10T01:58:38.959Z,100035.85
2017-09-10T02:01:07.324Z,100038.89
2017-09-10T02:03:36.185Z,100041.67
2017-09-10T02:06:05.136Z,100045.85
2017-09-10T02:08:33.538Z,100044.20
2017-09-10T02:11:02.165Z,100050.45
2017-09-10T02:13:30.490Z,100044.49
2017-09-10T02:16:00.028Z,100047.67
2017-09-10T02:18:29.098Z,100046.16
2017-09-10T02:20:58.533Z,100045.23
2017-09-10T02:23:26.874Z,100051.93
2017-09-10T02:25:56.519Z,100039.14
2017-09-10T02:28:24.910Z,100042.30
2017-09-10T02:30:53.303Z,100046.18
2017-09-10T02:33:22.315Z,100042.23
2017-09-10T02:35:50.711Z,100045.97
2017-09-10T02:38:20.149Z,100044.28
2017-09-10T02:40:49.536Z,100046.41
2017-09-10T02:43:17.880Z,100045.92
2017-09-10T02:45:47.066Z,100039.02
2017-09-10T02:48:16.409Z,100039.83
2017-09-10T02:50:44.823Z,100040.25
2017-09-10T02:53:13.166Z,100043.87
2017-09-10T02:55:42.023Z,100046.05
2017-09-10T02:58:10.358Z,100058.76
2017-09-10T03:00:39.527Z,100058.66
2017-09-10T03:03:08.216Z,100062.91
2017-09-10T03:05:37.355Z,100059.84
2017-09-10T03:08:06.644Z,100055.42
2017-09-10T03:10:35.563Z,100062.73
2017-09-10T03:13:03.919Z,100066.39
2017-09-10T03:15:32.697Z,100062.09
2017-09-10T03:18:01.864Z,100063.27
2017-09-10T03:20:30.222Z,100065.55
2017-09-10T03:22:58.686Z,100057.13
2017-09-10T03:25:27.616Z,100056.75
2017-09-10T03:27:55.960Z,100058.91
2017-09-10T03:30:25.085Z,100058.25
2017-09-10T03:32:54.271Z,100066.47
2017-09-10T03:35:23.485Z,100067.95
2017-09-10T03:37:51.827Z,100070.64
2017-09-10T03:40:20.510Z,100070.70
2017-09-10T03:42:48.965Z,100072.28
2017-09-10T03:45:17.341Z,100074.56
2017-09-10T03:47:46.184Z,100078.50
2017-09-10T03:50:15.321Z,100080.20
2017-09-10T03:52:43.667Z,100088.92
2017-09-10T03:55:12.598Z,100082.71
2017-09-10T03:57:41.636Z,100082.31
2017-09-10T04:00:09.993Z,100084.86
2017-09-10T04:02:40.443Z,100082.98
2017-09-10T04:05:08.803Z,100092.55
2017-09-10T04:07:37.172Z,100097.41
2017-09-10T04:10:06.610Z,100098.47
2017-09-10T04:12:34.954Z,100096.18
2017-09-10T04:15:04.283Z,100102.42
2017-09-10T04:17:33.387Z,100095.70
2017-09-10T04:20:01.721Z,100093.98
2017-09-10T04:22:31.225Z,100100.29
2017-09-10T04:24:59.966Z,100107.20
2017-09-10T04:27:28.934Z,100115.32
2017-09-10T04:29:57.287Z,100116.39
2017-09-10T04:32:27.352Z,100119.09
2017-09-10T04:34:56.587Z,100125.17
2017-09-10T04:37:24.953Z,100127.72
2017-09-10T04:39:53.817Z,100130.62
2017-09-10T04:42:22.168Z,100126.23
2017-09-10T04:44:50.529Z,100139.39
2017-09-10T04:47:19.249Z,100135.20
2017-09-10T04:49:47.637Z,100140.25
2017-09-10T04:52:16.202Z,100143.19
2017-09-10T04:54:45.429Z,100142.39
2017-09-10T04:57:13.782Z,100144.46
2017-09-10T04:59:42.152Z,100149.51
2017-09-10T05:02:10.918Z,100147.12
2017-09-10T05:04:39.970Z,100157.51
2017-09-10T05:07:08.996Z,100146.84
2017-09-10T05:09:37.886Z,100154.46
2017-09-10T05:12:06.822Z,100149.60
2017-09-10T05:14:35.358Z,100150.17
2017-09-10T05:17:04.147Z,100152.73
2017-09-10T05:19:33.202Z,100159.19
2017-09-10T05:22:01.553Z,100159.94
2017-09-10T05:24:30.235Z,100164.67
2017-09-10T05:26:58.578Z,100176.12
2017-09-10T05:29:31.032Z,100177.25
2017-09-10T05:32:00.451Z,100184.31
2017-09-10T05:34:28.790Z,100188.91
2017-09-10T05:36:58.722Z,100184.31
2017-09-10T05:39:27.823Z,100185.34
2017-09-10T05:41:57.095Z,100181.28
2017-09-10T05:44:25.591Z,100190.68
2017-09-10T05:46:54.219Z,100186.75
2017-09-10T05:49:23.581Z,100189.84
2017-09-10T05:51:51.959Z,100189.73
2017-09-10T05:54:20.794Z,100184.83
2017-09-10T05:56:49.148Z,100188.16
2017-09-10T05:59:18.242Z,100183.82
2017-09-10T06:01:46.925Z,100194.67
2017-09-10T06:04:17.454Z,100194.31
2017-09-10T06:06:46.463Z,100202.05
2017-09-10T06:09:15.199Z,100200.31
2017-09-10T06:11:43.545Z,100213.14
2017-09-10T06:14:11.896Z,100221.14
2017-09-10T06:16:41.401Z,100217.98
2017-09-10T06:19:09.754Z,100219.73
2017-09-10T06:21:38.115Z,100215.94
2017-09-10T06:24:07.977Z,100215.09
2017-09-10T06:26:36.331Z,100216.77
2017-09-10T06:29:04.734Z,100212.27
2017-09-10T06:31:34.373Z,100215.91
2017-09-10T06:34:02.746Z,100209.05
2017-09-10T06:36:31.126Z,100206.81
2017-09-10T06:38:59.754Z,100219.72
2017-09-10T06:41:29.145Z,100213.41
2017-09-10T06:43:57.500Z,100210.53
2017-09-10T06:46:26.290Z,100211.89
2017-09-10T06:48:54.655Z,100215.74
2017-09-10T06:51:23.060Z,100219.56
2017-09-10T06:53:53.475Z,100225.07
2017-09-10T06:56:21.845Z,100230.02
2017-09-10T06:58:50.184Z,100227.52
2017-09-10T07:01:19.003Z,100225.52
2017-09-10T07:03:47.383Z,100221.52
2017-09-10T07:06:16.510Z,100216.35
2017-09-10T07:08:45.731Z,100220.22
2017-09-10T07:11:14.383Z,100219.86
2017-09-10T07:13:43.094Z,100214.64
2017-09-10T07:16:12.427Z,100219.69
2017-09-10T07:18:40.802Z,100217.61
2017-09-10T07:21:10.202Z,100225.66
2017-09-10T07:23:39.948Z,100228.48
2017-09-10T07:26:08.314Z,100229.30
2017-09-10T07:28:36.708Z,100229.02
2017-09-10T07:31:06.321Z,100230.11
2017-09-10T07:33:37.202Z,100237.39
2017-09-10T07:36:06.149Z,100230.17
2017-09-10T07:38:34.774Z,100240.66
2017-09-10T07:41:03.696Z,100241.12
2017-09-10T07:43:32.044Z,100249.17
2017-09-10T07:46:00.699Z,100245.48
2017-09-10T07:48:29.648Z,100251.58
2017-09-10T07:50:59.383Z,100251.98
2017-09-10T07:53:29.560Z,100247.64
2017-09-10T07:55:57.899Z,100256.46
2017-09-10T07:58:26.256Z,100247.02
2017-09-10T08:00:54.922Z,100250.89
2017-09-10T08:03:23.365Z,100257.51
2017-09-10T08:05:52.080Z,100252.45
2017-09-10T08:08:20.935Z,100255.25
2017-09-10T08:10:49.849Z,100259.00
2017-09-10T08:13:19.166Z,100257.05
2017-09-10T08:15:48.212Z,100263.11
2017-09-10T08:18:18.428Z,100255.00
2017-09-10T08:20:48.454Z,100270.02
2017-09-10T08:23:17.099Z,100267.28
2017-09-10T08:25:45.472Z,100273.38
2017-09-10T08:28:14.042Z,100278.94
2017-09-10T08:30:42.996Z,100277.37
2017-09-10T08:33:11.347Z,100280.00
2017-09-10T08:35:41.083Z,100279.25
2017-09-10T08:38:09.790Z,100270.39
2017-09-10T08:40:38.131Z,100269.28
2017-09-10T08:43:07.390Z,100270.09
2017-09-10T08:45:36.032Z,100266.75
2017-09-10T08:48:05.267Z,100263.70
2017-09-10T08:50:33.624Z,100264.11
2017-09-10T08:53:02.424Z,100262.86
2017-09-10T08:55:31.494Z,100261.03
2017-09-10T08:57:59.906Z,100258.09
2017-09-10T09:00:28.650Z,100253.25
2017-09-10T09:02:57.018Z,100257.14
2017-09-10T09:05:25.374Z,100262.56
2017-09-10T09:07:54.034Z,100256.12
2017-09-10T09:10:22.425Z,100246.02
2017-09-10T09:12:52.283Z,100239.75
2017-09-10T09:15:21.007Z,100236.09
2017-09-10T09:17:50.134Z,100238.75
2017-09-10T09:20:19.233Z,100240.17
2017-09-10T09:22:48.095Z,100240.39
2017-09-10T09:25:16.906Z,100229.52
2017-09-10T09:27:45.790Z,100234.33
2017-09-10T09:30:14.584Z,100235.05
2017-09-10T09:32:42.980Z,100234.91
2017-09-10T09:35:11.908Z,100236.84
2017-09-10T09:37:42.536Z,100232.42
2017-09-10T09:40:11.649Z,100242.12
2017-09-10T09:42:39.994Z,100241.27
2017-09-10T09:45:08.821Z,100247.03
2017-09-10T09:47:37.189Z,100255.81
2017-09-10T09:50:07.329Z,100244.16
2017-09-10T09:52:36.981Z,100237.29
2017-09-10T09:55:05.334Z,100241.32
2017-09-10T09:57:33.678Z,100247.63
2017-09-10T10:00:02.351Z,100239.18
2017-09-10T10:02:31.462Z,100242.24
2017-09-10T10:04:59.822Z,100234.16
2017-09-10T10:07:29.382Z,100234.02
2017-09-10T10:09:58.668Z,100229.51
2017-09-10T10:12:27.376Z,100221.03
2017-09-10T10:14:56.229Z,100226.81
2017-09-10T10:17:25.386Z,100222.09
2017-09-10T10:19:53.737Z,100226.78
2017-09-10T10:22:22.702Z,100228.08
2017-09-10T10:24:51.074Z,100225.30
2017-09-10T10:27:19.439Z,100220.45
2017-09-10T10:29:48.997Z,100216.31
2017-09-10T10:32:17.362Z,100216.00
2017-09-10T10:34:46.335Z,100220.30
2017-09-10T10:37:15.082Z,100215.78
2017-09-10T10:39:43.440Z,100219.26
2017-09-10T10:42:12.586Z,100220.02
2017-09-10T10:44:41.277Z,100227.37
2017-09-10T10:47:10.418Z,100221.62
2017-09-10T10:49:38.793Z,100220.11
2017-09-10T10:52:07.797Z,100215.68
2017-09-10T10:54:36.147Z,100214.74
2017-09-10T10:57:05.961Z,100221.20
2017-09-10T10:59:34.879Z,100211.76
2017-09-10T11:02:03.816Z,100206.58
2017-09-10T11:04:32.954Z,100202.53
2017-09-10T11:07:01.701Z,100199.30
2017-09-10T11:09:31.798Z,100204.08
2017-09-10T11:12:00.200Z,100198.14
2017-09-10T11:14:30.879Z,100191.69
2017-09-10T11:16:59.224Z,100197.70
2017-09-10T11:19:27.558Z,100188.92
2017-09-10T11:21:56.308Z,100195.45
2017-09-10T11:24:24.644Z,100194.33
2017-09-10T11:26:55.028Z,100185.27
2017-09-10T11:29:23.984Z,100185.14
2017-09-10T11:31:52.355Z,100197.00
2017-09-10T11:34:22.512Z,100175.38
2017-09-10T11:36:51.474Z,100181.65
2017-09-10T11:39:19.843Z,100176.55
2017-09-10T11:41:48.984Z,100175.41
2017-09-10T11:44:18.770Z,100173.30
2017-09-10T11:46:47.280Z,100171.12
2017-09-10T11:49:15.692Z,100168.30
2017-09-10T11:51:44.343Z,100173.26
2017-09-10T11:54:13.592Z,100176.29
2017-09-10T11:56:41.962Z,100171.02
2017-09-10T11:59:10.744Z,100165.47
2017-09-10T12:01:39.771Z,100169.12
2017-09-10T12:04:08.107Z,100161.59
2017-09-10T12:06:36.738Z,100155.64
2017-09-10T12:09:05.993Z,100157.69
2017-09-10T12:11:34.344Z,100158.56
2017-09-10T12:14:03.261Z,100159.98
2017-09-10T12:16:32.248Z,100153.51
2017-09-10T12:19:01.360Z,100160.41
2017-09-10T12:21:30.525Z,100163.77
2017-09-10T12:23:58.877Z,100160.24
2017-09-10T12:26:27.999Z,100157.75
2017-09-10T12:28:56.785Z,100153.68
2017-09-10T12:31:25.774Z,100158.72
2017-09-10T12:33:54.110Z,100158.56
2017-09-10T12:36:23.563Z,100155.58
2017-09-10T12:38:51.932Z,100156.37
2017-09-10T12:41:21.053Z,100151.69
2017-09-10T12:43:49.739Z,100150.53
2017-09-10T12:46:18.085Z,100154.67
2017-09-10T12:48:47.185Z,100143.11
2017-09-10T12:51:15.783Z,100142.81
2017-09-10T12:53:44.113Z,100136.80
2017-09-10T12:56:12.454Z,100138.79
2017-09-10T12:58:41.226Z,100141.02
2017-09-10T13:01:09.579Z,100130.20
2017-09-10T13:03:38.704Z,100134.52
2017-09-10T13:06:07.885Z,100132.14
2017-09-10T13:08:36.235Z,100122.72
2017-09-10T13:11:04.628Z,100125.93
2017-09-10T13:13:34.921Z,100116.45
2017-09-10T13:16:03.317Z,100107.53
2017-09-10T13:18:32.509Z,100105.44
2017-09-10T13:21:01.141Z,100103.38
2017-09-10T13:23:29.514Z,100083.74
2017-09-10T13:25:57.893Z,100085.09
2017-09-10T13:28:27.499Z,100090.91
2017-09-10T13:30:55.913Z,100092.16
2017-09-10T13:33:24.260Z,100087.50
2017-09-10T13:35:52.875Z,100081.66
2017-09-10T13:38:22.379Z,100083.16
2017-09-10T13:40:50.724Z,100070.80
2017-09-10T13:43:19.847Z,100078.00
2017-09-10T13:45:48.205Z,100075.67
2017-09-10T13:48:18.035Z,100077.83
2017-09-10T13:50:47.077Z,100071.84
2017-09-10T13:53:15.453Z,100069.84
2017-09-10T13:55:45.229Z,100058.41
2017-09-10T13:58:14.544Z,100064.88
2017-09-10T14:00:43.522Z,100067.19
2017-09-10T14:03:12.769Z,100073.48
2017-09-10T14:05:41.463Z,100068.15
2017-09-10T14:08:09.838Z,100061.23
2017-09-10T14:10:38.255Z,100057.61
2017-09-10T14:13:07.213Z,100065.03
2017-09-10T14:15:35.592Z,100057.89
2017-09-10T14:18:03.954Z,100072.84
2017-09-10T14:20:32.616Z,100052.53
2017-09-10T14:23:00.980Z,100051.33
2017-09-10T14:25:29.591Z,100056.44
2017-09-10T14:27:58.446Z,100066.66
2017-09-10T14:30:26.806Z,100059.07
2017-09-10T14:32:55.921Z,100061.20
2017-09-10T14:35:24.974Z,100065.23
2017-09-10T14:37:53.623Z,100071.99
2017-09-10T14:40:21.997Z,100069.84
2017-09-10T14:42:50.767Z,100070.92
2017-09-10T14:45:19.180Z,100066.23
2017-09-10T14:47:47.526Z,100072.06
2017-09-10T14:50:16.216Z,100071.25
2017-09-10T14:52:44.563Z,100075.52
2017-09-10T14:55:14.398Z,100076.63
2017-09-10T14:57:43.279Z,100069.40
2017-09-10T15:00:12.393Z,100071.24
2017-09-10T15:02:40.834Z,100078.38
2017-09-10T15:05:10.399Z,100076.19
2017-09-10T15:07:39.562Z,100079.28
2017-09-10T15:10:08.012Z,100075.69
2017-09-10T15:12:36.929Z,100079.41
2017-09-10T15:15:05.289Z,100078.84
2017-09-10T15:17:33.642Z,100073.70
2017-09-10T15:20:02.501Z,100073.63
2017-09-10T15:22:30.878Z,100069.81
2017-09-10T15:25:00.016Z,100070.30
2017-09-10T15:27:29.599Z,100076.47
2017-09-10T15:30:00.659Z,100069.58
2017-09-10T15:32:29.107Z,100076.08
2017-09-10T15:34:58.663Z,100069.58
2017-09-10T15:37:27.025Z,100076.14
2017-09-10T15:39:55.395Z,100078.39
2017-09-10T15:42:24.767Z,100071.80
2017-09-10T15:44:53.118Z,100070.36
2017-09-10T15:47:21.473Z,100067.44
2017-09-10T15:49:50.123Z,100067.73
2017-09-10T15:52:18.477Z,100063.33
2017-09-10T15:54:48.267Z,100078.84
2017-09-10T15:57:17.550Z,100080.78
2017-09-10T15:59:46.289Z,100071.95
2017-09-10T16:02:16.267Z,100070.38
2017-09-10T16:04:45.606Z,100063.66
2017-09-10T16:07:13.947Z,100057.39
2017-09-10T16:09:42.298Z,100063.09
2017-09-10T16:12:10.934Z,100059.46
2017-09-10T16:14:39.471Z,100063.84
2017-09-10T16:17:09.355Z,100054.48
2017-09-10T16:19:37.985Z,100055.94
2017-09-10T16:22:06.325Z,100047.06
2017-09-10T16:24:34.688Z,100054.74
2017-09-10T16:27:04.612Z,100048.95
2017-09-10T16:29:32.991Z,100048.91
2017-09-10T16:32:01.399Z,100041.13
2017-09-10T16:34:30.322Z,100048.11
2017-09-10T16:36:58.669Z,100046.31
2017-09-10T16:39:27.013Z,100050.61
2017-09-10T16:41:55.703Z,100049.03
2017-09-10T16:44:24.039Z,100038.59
2017-09-10T16:46:52.389Z,100039.81
2017-09-10T16:49:21.311Z,100041.59
2017-09-10T16:51:50.391Z,100038.59
2017-09-10T16:54:18.734Z,100036.25
2017-09-10T16:56:47.423Z,100040.83
2017-09-10T16:59:15.815Z,100032.02
2017-09-10T17:01:44.185Z,100025.34
2017-09-10T17:04:13.055Z,100018.62
2017-09-10T17:06:41.399Z,100011.84
2017-09-10T17:09:09.771Z,100009.87
2017-09-10T17:11:39.128Z,100003.52
2017-09-10T17:14:10.444Z,100018.28
2017-09-10T17:16:38.841Z,100012.41
2017-09-10T17:19:07.534Z,100006.06
2017-09-10T17:21:35.931Z,99996.05
2017-09-10T17:24:04.369Z,99997.77
2017-09-10T17:26:32.990Z,99995.86
2017-09-10T17:29:02.400Z,100003.41
2017-09-10T17:31:30.746Z,100008.72
2017-09-10T17:34:00.471Z,100005.98
2017-09-10T17:36:29.519Z,100001.67
2017-09-10T17:38:57.876Z,100000.96
2017-09-10T17:41:27.286Z,100008.25
2017-09-10T17:43:56.702Z,100000.91
2017-09-10T17:46:25.124Z,100007.89
2017-09-10T17:48:54.544Z,100002.87
2017-09-10T17:51:23.629Z,100005.31
2017-09-10T17:53:52.060Z,100004.91
2017-09-10T17:56:21.849Z,99998.82
2017-09-10T17:58:50.414Z,100004.14
2017-09-10T18:01:18.782Z,99999.13
2017-09-10T18:03:48.362Z,100001.03
2017-09-10T18:06:16.943Z,99987.84
2017-09-10T18:08:45.969Z,99997.87
2017-09-10T18:11:14.711Z,99995.80
2017-09-10T18:13:43.723Z,99999.78
2017-09-10T18:16:12.149Z,100002.11
2017-09-10T18:18:40.958Z,100004.01
2017-09-10T18:21:09.438Z,99996.45
2017-09-10T18:23:38.551Z,99995.38
2017-09-10T18:26:07.364Z,99996.31
2017-09-10T18:28:35.983Z,100006.37
2017-09-10T18:31:04.475Z,100003.49
2017-09-10T18:33:34.169Z,99998.47
2017-09-10T18:36:02.600Z,99997.12
2017-09-10T18:38:31.752Z,99990.17
2017-09-10T18:41:00.860Z,99996.02
2017-09-10T18:43:29.940Z,99993.42
2017-09-10T18:45:58.318Z,99991.54
2017-09-10T18:48:27.065Z,99989.88
2017-09-10T18:50:55.538Z,99993.41
2017-09-10T18:53:24.913Z,99986.48
2017-09-10T18:55:58.625Z,99981.70
2017-09-10T18:58:28.813Z,99982.80
2017-09-10T19:00:57.404Z,99989.88
2017-09-10T19:03:27.082Z,99982.20
2017-09-10T19:05:56.475Z,99982.16
2017-09-10T19:08:24.842Z,99982.62
2017-09-10T19:10:54.411Z,99978.31
2017-09-10T19:13:22.920Z,99978.39
2017-09-10T19:15:51.955Z,99975.02
2017-09-10T19:18:21.056Z,99961.06
2017-09-10T19:20:49.878Z,99959.91
2017-09-10T19:23:18.279Z,99964.54
2017-09-10T19:25:47.254Z,99959.77
2017-09-10T19:28:16.547Z,99965.48
2017-09-10T19:30:44.920Z,99959.30
2017-09-10T19:33:13.547Z,99955.08
2017-09-10T19:35:41.910Z,99966.74
2017-09-10T19:38:10.294Z,99958.72
2017-09-10T19:40:40.831Z,99949.41
2017-09-10T19:43:10.464Z,99942.27
2017-09-10T19:45:38.879Z,99943.48
2017-09-10T19:48:07.675Z,99940.02
2017-09-10T19:50:36.027Z,99928.91
2017-09-10T19:53:04.369Z,99926.73
2017-09-10T19:55:33.640Z,99928.14
2017-09-10T19:58:02.021Z,99929.45
2017-09-10T20:00:30.821Z,99931.33
2017-09-10T20:02:59.505Z,99931.33
2017-09-10T20:05:28.768Z,99927.82
2017-09-10T20:07:57.284Z,99927.76
2017-09-10T20:10:26.556Z,99921.19
2017-09-10T20:12:55.955Z,99921.61
2017-09-10T20:15:24.304Z,99920.62
2017-09-10T20:17:53.169Z,99919.47
2017-09-10T20:20:22.466Z,99927.47
2017-09-10T20:22:50.842Z,99917.54
2017-09-10T20:25:19.473Z,99920.09
2017-09-10T20:27:47.796Z,99921.78
2017-09-10T20:30:16.166Z,99912.55
2017-09-10T20:32:45.088Z,99914.58
2017-09-10T20:35:13.416Z,99909.08
2017-09-10T20:37:42.561Z,99913.41
2017-09-10T20:40:11.176Z,99900.78
2017-09-10T20:42:40.376Z,99893.47
2017-09-10T20:45:08.740Z,99893.53
2017-09-10T20:47:37.470Z,99888.64
2017-09-10T20:50:06.063Z,99889.77
2017-09-10T20:52:35.266Z,99888.33
2017-09-10T20:55:04.546Z,99885.20
2017-09-10T20:57:33.906Z,99878.97
2017-09-10T21:00:02.270Z,99888.31
2017-09-10T21:02:31.129Z,99883.59
2017-09-10T21:05:00.466Z,99881.63
2017-09-10T21:07:28.817Z,99876.43
2017-09-10T21:09:58.213Z,99865.89
2017-09-10T21:12:27.549Z,99863.24
2017-09-10T21:14:55.894Z,99857.52
2017-09-10T21:17:25.152Z,99863.17
2017-09-10T21:19:54.103Z,99857.16
2017-09-10T21:22:22.704Z,99854.27
2017-09-10T21:24:51.800Z,99846.30
2017-09-10T21:27:21.067Z,99849.99
2017-09-10T21:29:49.426Z,99839.88
2017-09-10T21:32:18.984Z,99841.97
2017-09-10T21:34:47.349Z,99844.75
2017-09-10T21:37:15.663Z,99849.55
2017-09-10T21:39:44.451Z,99842.55
2017-09-10T21:42:12.828Z,99836.45
2017-09-10T21:44:41.221Z,99841.08
2017-09-10T21:47:10.221Z,99831.76
2017-09-10T21:49:39.502Z,99824.96
2017-09-10T21:52:08.660Z,99832.09
2017-09-10T21:54:38.160Z,99828.67
2017-09-10T21:57:07.346Z,99823.12
2017-09-10T21:59:36.786Z,99831.26
2017-09-10T22:02:06.671Z,99828.42
2017-09-10T22:04:35.049Z,99824.23
2017-09-10T22:07:04.170Z,99822.01
2017-09-10T22:09:33.465Z,99829.89
2017-09-10T22:12:01.949Z,99823.09
2017-09-10T22:14:30.327Z,99816.63
2017-09-10T22:16:59.057Z,99817.30
2017-09-10T22:19:27.440Z,99805.50
2017-09-10T22:21:55.820Z,99816.77
2017-09-10T22:24:25.162Z,99820.08
2017-09-10T22:26:53.494Z,99810.09
2017-09-10T22:29:23.288Z,99812.08
2017-09-10T22:31:54.876Z,99801.30
2017-09-10T22:34:23.346Z,99802.02
2017-09-10T22:36:51.749Z,99800.20
2017-09-10T22:39:20.437Z,99796.46
2017-09-10T22:41:50.209Z,99793.39
2017-09-10T22:44:19.238Z,99795.75
2017-09-10T22:46:48.264Z,99789.11
2017-09-10T22:49:16.616Z,99786.81
2017-09-10T22:51:45.710Z,99785.17
2017-09-10T22:54:14.384Z,99778.34
2017-09-10T22:56:43.723Z,99779.99
2017-09-10T22:59:12.065Z,99773.84
2017-09-10T23:01:40.668Z,99767.55
2017-09-10T23:04:09.800Z,99768.16
2017-09-10T23:06:38.126Z,99757.54
2017-09-10T23:09:07.251Z,99761.27
2017-09-10T23:11:37.039Z,99759.33
2017-09-10T23:14:06.446Z,99757.77
2017-09-10T23:16:35.162Z,99750.80
2017-09-10T23:19:03.507Z,99747.53
2017-09-10T23:21:31.893Z,99749.46
2017-09-10T23:24:00.627Z,99741.91
2017-09-10T23:26:28.984Z,99747.02
2017-09-10T23:28:58.794Z,99734.78
2017-09-10T23:31:27.889Z,99731.02
2017-09-10T23:33:56.269Z,99722.97
2017-09-10T23:36:24.817Z,99724.70
2017-09-10T23:38:53.615Z,99727.68
2017-09-10T23:41:23.428Z,99720.44
2017-09-10T23:43:53.445Z,99710.69
2017-09-10T23:46:23.689Z,99709.46
2017-09-10T23:48:52.052Z,99701.69
2017-09-10T23:51:20.587Z,99711.25
2017-09-10T23:53:50.242Z,99708.83
2017-09-10T23:56:18.613Z,99700.50
2017-09-10T23:58:46.959Z,99706.70
